Main page
METAR-TAF:

METAR-TAF

Airports :

A.L. Mangham Jr. Regional Airport

Nacogdoches, Texas, United States

latitude: 31-35N, longitude: 094-43W, elevation: 354 ft

Current weather observation

The report was made 52 minutes ago, at 20:56 UTC
Wind 9 mph from the South/Southeast
Temperature 70°F
Humidity 100%
Pressure 29.84 in. Hg
Visibility: 7 miles
Overcast at a height of 1000 ft

METAR: KOCH 172056Z AUTO 15008KT 7SM OVC010 21/21 A2984 RMK AO2 SLP108 T02060206 56022 PWINO

Time: 15:48 (21:48 UTC)


TAF: missing

Weather observations and forecasts of more than 4000 airports (METAR and TAF reports).

The available stations are represented by yellow and red dots on the map.

Hover mouse over dot to see the name of the station.

Then click to see weather observations and forecasts.

To change the map : click on the green buttons with a black cross to zoom in, on the green button with a dash to zoom out, or on the green arrows for adjacent maps.


METAR-TAF: